バルセロナ の空港の天気 - METARとTAF

バルセロナ・エル・プラット国際空港 ( LEBL / BCN ) - スペイン バルセロナ
飛行場実況気象(Metar)
観測時間10/20 20:00 CEST (10/20 18:00 UTC)
風向・風速東北東 2m/s
視程10km以上
天気現象
なし
気温20℃
湿度83%
気圧1022hPa
METARLEBL 201800Z 06004KT CAVOK 20/17 Q1022 NOSIG
過去の天気等 Google飛行場航空写真 Wunderground天気予報

過去48時間のMETAR

飛行場予報(TAF)
発表時間: 10/20 19:00 CEST (10/20 17:00 UTC)
予報対象時間: 20日20時 CEST ~ 21日20時 CEST
風向・風速東北東 4m/s
視程10km以上
少しの雲 雲底高度 1220m
20日22時 CEST ~ 20日24時 CEST に徐々に
風向・風速北北西 3m/s
21日14時 CEST ~ 21日16時 CEST に徐々に
風向・風速南南西 4m/s
TAF LEBL 201700Z 2018/2118 07008KT 9999 FEW040 TX25/2112Z TN15/2106Z
BECMG 2020/2022 34005KT
BECMG 2112/2114 21008KT